San Diego, CA

7:26 AM PDT on July 26, 2016 (GMT -0700)
Miramar Marine Corps Air Station-Mitscher | | Change Station

Elev 476 ft 32.86 °N, 117.14 °W | Updated 31 minutes ago

Mostly Cloudy
Mostly Cloudy
69 °F
Feels Like 69 °F
N
5
Wind Variable Wind from NNW

Today
High -- | Low -- °F
--% Chance of Precip.
Yesterday
High -- | Low -- °F
Precip. -- in
Pressure 29.89 in
Visibility 6.0 miles
Clouds Mostly Cloudy 600 ft
Dew Point 67 °F
Humidity 93%
Rainfall 0.00 in
Snow Depth Not available.
5:58 AM 7:51 PM
Waning Gibbous, 54% visible
METAR KNKX 261355Z 34004KT 6SM BR BKN006 21/19 A2991 RMK AO2 SLP122 T02060194
Pressure 29.89 in
Visibility 6.0 miles
Clouds Mostly Cloudy 600 ft
Dew Point 67 °F
Humidity 93%
Rainfall 0.00 in
Snow Depth Not available.
5:58 AM 7:51 PM
Waning Gibbous, 54% visible
METAR KNKX 261355Z 34004KT 6SM BR BKN006 21/19 A2991 RMK AO2 SLP122 T02060194

10-Day Weather Forecast

Almanac

Astronomy

Jul. 26, 2016 Rise Set
Actual Time
Civil Twilight
Nautical Twilight
Astronomical Twilight
Moon
Length of Visible Light
Length of Day
Tomorrow will be .
, % of the Moon is Illuminated

Today's Extremes

State Highs State Lows

Community

WunderPhotos

Upload Photos

1,927,590 photos uploaded!

WunderBlog® & News

Nearby

Air Quality

  Air Quality AQ Index Pollutant
Not available.

Snow Depth

Station Depth Elevation

Earthquake Activity

City Distance Mag. Time & Date
Minimum magnitude displayed is 2.5.

Coastal Water Temperatures

Place Temperature

Stations

Nearby Weather Stations

Station Location Temp. Windchill Dew Point Humidity Wind Precip. Elev Updated Type
                   

Watches & Warnings

There are currently no watches in effect.